createdAt,value
2018-07-12T10:55:04.404Z,26.4
2018-07-12T10:55:17.466Z,26.4
2018-07-12T11:00:03.499Z,29.45
2018-07-12T11:05:03.502Z,29.28
2018-07-12T11:10:03.518Z,30.5
2018-07-12T11:15:03.512Z,31.52
2018-07-12T11:20:03.508Z,31.48
2018-07-12T11:25:03.516Z,32.09
2018-07-12T11:30:03.536Z,32.68
2018-07-12T11:35:03.517Z,29.52
2018-07-12T11:40:03.517Z,30.27
2018-07-12T11:45:03.522Z,34.16
2018-07-12T11:50:03.543Z,31.21
2018-07-12T11:55:03.528Z,27.96
2018-07-12T12:00:03.529Z,29.92
2018-07-12T12:05:03.539Z,33.33
2018-07-12T12:10:03.552Z,36.13
2018-07-12T12:15:03.537Z,37.42
2018-07-12T12:20:03.537Z,32.59
2018-07-12T12:25:03.550Z,33.38
2018-07-12T12:30:03.544Z,34.54
2018-07-12T12:35:03.550Z,33.99
2018-07-12T12:40:03.551Z,36.61
2018-07-12T12:45:03.559Z,33.47
2018-07-12T12:50:03.557Z,35.87
2018-07-12T12:55:03.560Z,37.6
2018-07-12T13:00:03.616Z,38.17
2018-07-12T13:05:03.556Z,33.86
2018-07-12T13:10:03.577Z,32.92
2018-07-12T13:15:03.594Z,33.93
2018-07-12T13:20:03.573Z,34.34
2018-07-12T13:25:03.588Z,34.56
2018-07-12T13:30:03.577Z,35.42
2018-07-12T13:35:03.578Z,33.8
2018-07-12T13:40:03.591Z,32.05
2018-07-12T13:45:03.583Z,30.75
2018-07-12T13:50:03.588Z,29.7
2018-07-12T13:55:03.605Z,29.82
2018-07-12T14:00:03.597Z,30.28
2018-07-12T14:05:03.634Z,30.49
2018-07-12T14:10:03.605Z,31.87
2018-07-12T14:15:03.594Z,33
2018-07-12T14:20:03.599Z,33.93
2018-07-12T14:25:03.603Z,35.1
2018-07-12T14:30:03.612Z,34.67
2018-07-12T14:35:03.610Z,32.12
2018-07-12T14:40:03.620Z,32.24
2018-07-12T14:45:03.620Z,34.63
2018-07-12T14:50:03.618Z,33.55
2018-07-12T14:55:03.625Z,35.44
2018-07-12T15:00:03.650Z,35.93
2018-07-12T15:05:03.626Z,37.15
2018-07-12T15:10:03.634Z,38.19
2018-07-12T15:15:03.635Z,35.16
2018-07-12T15:20:03.659Z,32.94
2018-07-12T15:25:03.639Z,30.12
2018-07-12T15:30:03.642Z,28.41
2018-07-12T15:35:03.667Z,27.58
2018-07-12T15:40:03.651Z,26.86
2018-07-12T15:45:03.646Z,26.48
2018-07-12T15:50:03.673Z,26.27
2018-07-12T15:55:03.651Z,26.23
2018-07-12T16:00:03.665Z,26.17
2018-07-12T16:05:03.662Z,26.13
2018-07-12T16:10:03.682Z,25.82
2018-07-12T16:15:03.661Z,25.57
2018-07-12T16:20:03.661Z,25.61
2018-07-12T16:25:03.685Z,25.65
2018-07-12T16:30:03.673Z,25.97
2018-07-12T16:35:03.674Z,26.18
2018-07-12T16:40:03.693Z,26.49
2018-07-12T16:45:03.675Z,26.39
2018-07-12T16:50:03.683Z,26.07
2018-07-12T16:55:03.694Z,25.67
2018-07-12T17:00:03.693Z,25.23
2018-07-12T17:05:03.698Z,24.82
2018-07-12T17:10:03.696Z,24.44
2018-07-12T17:15:03.693Z,24.11
2018-07-12T17:20:03.707Z,24.04
2018-07-12T17:25:03.699Z,23.97
2018-07-12T17:30:03.702Z,23.74
2018-07-12T17:35:03.712Z,23.57
2018-07-12T17:40:03.704Z,23.54
2018-07-12T17:45:03.709Z,23.5
2018-07-12T17:50:03.716Z,23.39
2018-07-12T17:55:03.715Z,23.36
2018-07-12T18:00:03.718Z,23.34
2018-07-12T18:05:03.847Z,23.23
2018-07-12T18:10:03.724Z,23.09
2018-07-12T18:15:03.727Z,22.88
2018-07-12T18:20:03.749Z,22.69
2018-07-12T18:25:03.731Z,22.44
2018-07-12T18:30:03.732Z,22.24
2018-07-12T18:35:03.752Z,22.05
2018-07-12T18:40:03.740Z,21.91
2018-07-12T18:45:03.745Z,21.8
2018-07-12T18:50:03.759Z,21.72
2018-07-12T18:55:03.749Z,21.64
2018-07-12T19:00:03.753Z,21.55
2018-07-12T19:05:03.755Z,21.43
2018-07-12T19:10:03.775Z,21.38
2018-07-12T19:15:03.814Z,21.34
2018-07-12T19:20:03.762Z,21.27
2018-07-12T19:25:03.795Z,21.19
2018-07-12T19:30:03.769Z,21.1
2018-07-12T19:35:04.012Z,21.05
2018-07-12T19:40:03.800Z,20.89
2018-07-12T19:45:03.807Z,20.63
2018-07-12T19:50:03.783Z,20.37
2018-07-12T19:55:03.785Z,20.16
2018-07-12T20:00:03.793Z,20
2018-07-12T20:05:03.822Z,19.83
2018-07-12T20:10:03.796Z,19.73
2018-07-12T20:15:03.800Z,19.6
2018-07-12T20:20:03.808Z,19.56
2018-07-12T20:25:03.882Z,19.4
2018-07-12T20:30:03.808Z,19.32
2018-07-12T20:35:03.831Z,19.27
2018-07-12T20:40:03.816Z,19.21
2018-07-12T20:45:03.815Z,19.2
2018-07-12T20:50:03.836Z,19.04
2018-07-12T20:55:03.843Z,19.02
2018-07-12T21:00:03.825Z,19.03
2018-07-12T21:05:03.846Z,18.84
2018-07-12T21:10:03.832Z,18.65
2018-07-12T21:15:03.832Z,18.44
2018-07-12T21:20:03.840Z,18.27
2018-07-12T21:25:03.835Z,18.14
2018-07-12T21:30:03.845Z,18.08
2018-07-12T21:35:03.859Z,17.98
2018-07-12T21:40:03.845Z,17.88
2018-07-12T21:45:03.850Z,17.7
2018-07-12T21:50:03.874Z,17.49
2018-07-12T21:55:03.860Z,17.38
2018-07-12T22:00:03.858Z,17.28
2018-07-12T22:05:03.868Z,17.17
2018-07-12T22:10:03.867Z,17.07
2018-07-12T22:15:03.868Z,16.96
2018-07-12T22:20:03.868Z,16.9
2018-07-12T22:25:03.885Z,16.95
2018-07-12T22:30:03.873Z,16.91
2018-07-12T22:35:03.875Z,16.92
2018-07-12T22:40:03.887Z,16.98
2018-07-12T22:45:03.879Z,16.93
2018-07-12T22:50:03.883Z,16.89
2018-07-12T22:55:03.904Z,16.84
2018-07-12T23:00:03.893Z,16.77
2018-07-12T23:05:03.896Z,16.58
2018-07-12T23:10:03.894Z,16.36
2018-07-12T23:15:03.901Z,16.17
2018-07-12T23:20:03.902Z,15.99
2018-07-12T23:25:03.905Z,15.85
2018-07-12T23:30:03.924Z,15.69
2018-07-12T23:35:03.909Z,15.47
2018-07-12T23:40:03.915Z,15.45
2018-07-12T23:45:03.930Z,15.42
2018-07-12T23:50:03.913Z,15.27
2018-07-12T23:55:03.921Z,15.13
